sensor_id;sensor_type;location;lat;lon;timestamp;P1;durP1;ratioP1;P2;durP2;ratioP2
19127;SDS011;9696;53.686;10.094;2023-11-18T00:00:35;5.67;;;3.17;;
19127;SDS011;9696;53.686;10.094;2023-11-18T00:03:09;9.77;;;3.70;;
19127;SDS011;9696;53.686;10.094;2023-11-18T00:05:38;4.53;;;3.07;;
19127;SDS011;9696;53.686;10.094;2023-11-18T00:10:56;8.87;;;3.33;;
19127;SDS011;9696;53.686;10.094;2023-11-18T00:13:27;5.50;;;3.40;;
19127;SDS011;9696;53.686;10.094;2023-11-18T00:15:56;7.27;;;3.57;;
19127;SDS011;9696;53.686;10.094;2023-11-18T00:18:27;5.27;;;2.90;;
19127;SDS011;9696;53.686;10.094;2023-11-18T00:20:58;5.17;;;3.20;;
19127;SDS011;9696;53.686;10.094;2023-11-18T00:23:28;5.90;;;3.47;;
19127;SDS011;9696;53.686;10.094;2023-11-18T00:25:58;5.53;;;3.00;;
19127;SDS011;9696;53.686;10.094;2023-11-18T00:28:29;4.37;;;2.87;;
19127;SDS011;9696;53.686;10.094;2023-11-18T00:30:59;4.70;;;3.13;;
19127;SDS011;9696;53.686;10.094;2023-11-18T00:33:31;4.40;;;2.73;;
19127;SDS011;9696;53.686;10.094;2023-11-18T00:36:02;4.37;;;3.00;;
19127;SDS011;9696;53.686;10.094;2023-11-18T00:38:32;7.73;;;3.10;;
19127;SDS011;9696;53.686;10.094;2023-11-18T00:41:09;6.53;;;3.67;;
19127;SDS011;9696;53.686;10.094;2023-11-18T00:43:41;4.57;;;2.77;;
19127;SDS011;9696;53.686;10.094;2023-11-18T00:46:10;4.57;;;2.63;;
19127;SDS011;9696;53.686;10.094;2023-11-18T00:48:42;5.43;;;2.97;;
19127;SDS011;9696;53.686;10.094;2023-11-18T00:51:12;6.23;;;3.63;;
19127;SDS011;9696;53.686;10.094;2023-11-18T00:53:42;4.77;;;3.47;;
19127;SDS011;9696;53.686;10.094;2023-11-18T00:56:13;7.63;;;3.10;;
19127;SDS011;9696;53.686;10.094;2023-11-18T00:58:46;5.27;;;3.13;;
19127;SDS011;9696;53.686;10.094;2023-11-18T01:01:17;4.97;;;3.03;;
19127;SDS011;9696;53.686;10.094;2023-11-18T01:03:54;6.07;;;3.20;;
19127;SDS011;9696;53.686;10.094;2023-11-18T01:06:26;5.27;;;3.30;;
19127;SDS011;9696;53.686;10.094;2023-11-18T01:08:55;5.73;;;3.27;;
19127;SDS011;9696;53.686;10.094;2023-11-18T01:11:26;6.37;;;3.53;;
19127;SDS011;9696;53.686;10.094;2023-11-18T01:13:57;4.53;;;3.07;;
19127;SDS011;9696;53.686;10.094;2023-11-18T01:16:28;11.60;;;3.30;;
19127;SDS011;9696;53.686;10.094;2023-11-18T01:18:57;6.43;;;3.27;;
19127;SDS011;9696;53.686;10.094;2023-11-18T01:21:27;7.07;;;3.57;;
19127;SDS011;9696;53.686;10.094;2023-11-18T01:23:56;7.97;;;3.70;;
19127;SDS011;9696;53.686;10.094;2023-11-18T01:26:25;5.03;;;3.20;;
19127;SDS011;9696;53.686;10.094;2023-11-18T01:29:02;7.53;;;3.50;;
19127;SDS011;9696;53.686;10.094;2023-11-18T01:31:32;5.93;;;3.50;;
19127;SDS011;9696;53.686;10.094;2023-11-18T01:34:18;6.73;;;3.50;;
19127;SDS011;9696;53.686;10.094;2023-11-18T01:36:50;5.43;;;3.00;;
19127;SDS011;9696;53.686;10.094;2023-11-18T01:39:20;5.53;;;3.47;;
19127;SDS011;9696;53.686;10.094;2023-11-18T01:41:49;5.87;;;3.50;;
19127;SDS011;9696;53.686;10.094;2023-11-18T01:44:20;6.50;;;3.20;;
19127;SDS011;9696;53.686;10.094;2023-11-18T01:46:52;5.43;;;3.47;;
19127;SDS011;9696;53.686;10.094;2023-11-18T01:49:21;4.63;;;2.90;;
19127;SDS011;9696;53.686;10.094;2023-11-18T01:51:51;4.37;;;2.70;;
19127;SDS011;9696;53.686;10.094;2023-11-18T01:54:21;6.07;;;2.93;;
19127;SDS011;9696;53.686;10.094;2023-11-18T01:56:52;6.00;;;3.07;;
19127;SDS011;9696;53.686;10.094;2023-11-18T01:59:24;4.50;;;3.10;;
19127;SDS011;9696;53.686;10.094;2023-11-18T02:02:01;4.10;;;2.63;;
19127;SDS011;9696;53.686;10.094;2023-11-18T02:04:31;4.63;;;3.27;;
19127;SDS011;9696;53.686;10.094;2023-11-18T02:07:02;5.57;;;3.13;;
19127;SDS011;9696;53.686;10.094;2023-11-18T02:09:36;5.40;;;3.60;;
19127;SDS011;9696;53.686;10.094;2023-11-18T02:12:08;6.50;;;3.53;;
19127;SDS011;9696;53.686;10.094;2023-11-18T02:14:45;5.73;;;3.57;;
19127;SDS011;9696;53.686;10.094;2023-11-18T02:17:18;5.93;;;3.27;;
19127;SDS011;9696;53.686;10.094;2023-11-18T02:19:53;9.30;;;3.37;;
19127;SDS011;9696;53.686;10.094;2023-11-18T02:22:25;6.07;;;3.33;;
19127;SDS011;9696;53.686;10.094;2023-11-18T02:24:57;4.63;;;3.10;;
19127;SDS011;9696;53.686;10.094;2023-11-18T02:27:34;5.73;;;3.53;;
19127;SDS011;9696;53.686;10.094;2023-11-18T02:30:05;5.80;;;3.70;;
19127;SDS011;9696;53.686;10.094;2023-11-18T02:32:39;6.97;;;3.37;;
19127;SDS011;9696;53.686;10.094;2023-11-18T02:35:15;7.10;;;3.13;;
19127;SDS011;9696;53.686;10.094;2023-11-18T02:37:53;5.30;;;2.90;;
19127;SDS011;9696;53.686;10.094;2023-11-18T02:40:26;5.20;;;3.37;;
19127;SDS011;9696;53.686;10.094;2023-11-18T02:43:01;5.20;;;3.33;;
19127;SDS011;9696;53.686;10.094;2023-11-18T02:45:33;6.67;;;3.33;;
19127;SDS011;9696;53.686;10.094;2023-11-18T02:48:04;5.87;;;3.37;;
19127;SDS011;9696;53.686;10.094;2023-11-18T02:50:38;9.03;;;3.93;;
19127;SDS011;9696;53.686;10.094;2023-11-18T02:53:08;5.60;;;3.10;;
19127;SDS011;9696;53.686;10.094;2023-11-18T02:55:38;5.80;;;3.30;;
19127;SDS011;9696;53.686;10.094;2023-11-18T02:58:10;5.00;;;3.07;;
19127;SDS011;9696;53.686;10.094;2023-11-18T03:00:39;5.73;;;3.63;;
19127;SDS011;9696;53.686;10.094;2023-11-18T03:03:11;9.30;;;3.50;;
19127;SDS011;9696;53.686;10.094;2023-11-18T03:05:42;7.80;;;3.80;;
19127;SDS011;9696;53.686;10.094;2023-11-18T03:08:17;6.93;;;3.57;;
19127;SDS011;9696;53.686;10.094;2023-11-18T03:10:47;6.87;;;4.10;;
19127;SDS011;9696;53.686;10.094;2023-11-18T03:13:21;7.03;;;3.70;;
19127;SDS011;9696;53.686;10.094;2023-11-18T03:15:50;12.47;;;5.10;;
19127;SDS011;9696;53.686;10.094;2023-11-18T03:18:20;7.03;;;3.80;;
19127;SDS011;9696;53.686;10.094;2023-11-18T03:20:49;7.97;;;4.00;;
19127;SDS011;9696;53.686;10.094;2023-11-18T03:23:19;7.50;;;4.77;;
19127;SDS011;9696;53.686;10.094;2023-11-18T03:25:48;13.37;;;3.83;;
19127;SDS011;9696;53.686;10.094;2023-11-18T03:28:18;8.63;;;3.93;;
19127;SDS011;9696;53.686;10.094;2023-11-18T03:30:50;8.37;;;3.83;;
19127;SDS011;9696;53.686;10.094;2023-11-18T03:33:21;5.97;;;3.87;;
19127;SDS011;9696;53.686;10.094;2023-11-18T03:35:51;9.93;;;4.63;;
19127;SDS011;9696;53.686;10.094;2023-11-18T03:38:22;6.70;;;4.10;;
19127;SDS011;9696;53.686;10.094;2023-11-18T03:40:52;8.17;;;3.80;;
19127;SDS011;9696;53.686;10.094;2023-11-18T03:43:24;8.40;;;4.00;;
19127;SDS011;9696;53.686;10.094;2023-11-18T03:45:53;8.00;;;4.07;;
19127;SDS011;9696;53.686;10.094;2023-11-18T03:48:24;5.03;;;3.20;;
19127;SDS011;9696;53.686;10.094;2023-11-18T03:50:53;5.50;;;3.37;;
19127;SDS011;9696;53.686;10.094;2023-11-18T03:53:22;7.10;;;3.90;;
19127;SDS011;9696;53.686;10.094;2023-11-18T03:55:52;6.60;;;3.63;;
19127;SDS011;9696;53.686;10.094;2023-11-18T03:58:24;7.07;;;3.77;;
19127;SDS011;9696;53.686;10.094;2023-11-18T04:00:53;8.10;;;4.30;;
19127;SDS011;9696;53.686;10.094;2023-11-18T04:03:24;6.10;;;4.03;;
19127;SDS011;9696;53.686;10.094;2023-11-18T04:05:53;7.17;;;3.60;;
19127;SDS011;9696;53.686;10.094;2023-11-18T04:08:23;5.33;;;3.70;;
19127;SDS011;9696;53.686;10.094;2023-11-18T04:10:52;7.00;;;3.97;;
19127;SDS011;9696;53.686;10.094;2023-11-18T04:13:23;8.13;;;4.00;;
19127;SDS011;9696;53.686;10.094;2023-11-18T04:15:54;6.17;;;3.90;;
19127;SDS011;9696;53.686;10.094;2023-11-18T04:18:23;8.83;;;4.47;;
19127;SDS011;9696;53.686;10.094;2023-11-18T04:20:55;12.70;;;3.77;;
19127;SDS011;9696;53.686;10.094;2023-11-18T04:23:25;7.10;;;3.70;;
19127;SDS011;9696;53.686;10.094;2023-11-18T04:25:55;7.33;;;3.90;;
19127;SDS011;9696;53.686;10.094;2023-11-18T04:28:31;10.17;;;4.83;;
19127;SDS011;9696;53.686;10.094;2023-11-18T04:31:00;8.00;;;4.20;;
19127;SDS011;9696;53.686;10.094;2023-11-18T04:33:32;7.07;;;4.23;;
19127;SDS011;9696;53.686;10.094;2023-11-18T04:36:02;7.10;;;4.00;;
19127;SDS011;9696;53.686;10.094;2023-11-18T04:38:33;7.20;;;4.20;;
19127;SDS011;9696;53.686;10.094;2023-11-18T04:41:02;5.80;;;3.63;;
19127;SDS011;9696;53.686;10.094;2023-11-18T04:43:35;5.57;;;3.67;;
19127;SDS011;9696;53.686;10.094;2023-11-18T04:46:12;8.67;;;3.80;;
19127;SDS011;9696;53.686;10.094;2023-11-18T04:48:41;6.67;;;3.90;;
19127;SDS011;9696;53.686;10.094;2023-11-18T04:51:11;6.80;;;3.90;;
19127;SDS011;9696;53.686;10.094;2023-11-18T04:53:43;8.27;;;4.47;;
19127;SDS011;9696;53.686;10.094;2023-11-18T04:56:14;10.23;;;4.67;;
19127;SDS011;9696;53.686;10.094;2023-11-18T04:58:47;10.00;;;4.50;;
19127;SDS011;9696;53.686;10.094;2023-11-18T05:01:17;10.00;;;5.20;;
19127;SDS011;9696;53.686;10.094;2023-11-18T05:03:48;7.60;;;4.40;;
19127;SDS011;9696;53.686;10.094;2023-11-18T05:06:18;8.47;;;4.43;;
19127;SDS011;9696;53.686;10.094;2023-11-18T05:08:47;8.87;;;5.13;;
19127;SDS011;9696;53.686;10.094;2023-11-18T05:11:17;9.80;;;5.53;;
19127;SDS011;9696;53.686;10.094;2023-11-18T05:13:48;9.03;;;5.00;;
19127;SDS011;9696;53.686;10.094;2023-11-18T05:16:17;8.67;;;4.70;;
19127;SDS011;9696;53.686;10.094;2023-11-18T05:18:47;8.60;;;4.90;;
19127;SDS011;9696;53.686;10.094;2023-11-18T05:21:27;6.80;;;3.93;;
19127;SDS011;9696;53.686;10.094;2023-11-18T05:23:57;12.53;;;4.73;;
19127;SDS011;9696;53.686;10.094;2023-11-18T05:26:34;7.73;;;4.73;;
19127;SDS011;9696;53.686;10.094;2023-11-18T05:29:06;7.83;;;4.60;;
19127;SDS011;9696;53.686;10.094;2023-11-18T05:31:36;6.73;;;4.00;;
19127;SDS011;9696;53.686;10.094;2023-11-18T05:34:17;7.43;;;4.67;;
19127;SDS011;9696;53.686;10.094;2023-11-18T05:36:47;7.37;;;4.37;;
19127;SDS011;9696;53.686;10.094;2023-11-18T05:39:23;8.10;;;4.23;;
19127;SDS011;9696;53.686;10.094;2023-11-18T05:41:54;6.10;;;4.03;;
19127;SDS011;9696;53.686;10.094;2023-11-18T05:44:25;8.53;;;4.83;;
19127;SDS011;9696;53.686;10.094;2023-11-18T05:47:05;9.23;;;4.60;;
19127;SDS011;9696;53.686;10.094;2023-11-18T05:49:36;7.63;;;4.80;;
19127;SDS011;9696;53.686;10.094;2023-11-18T05:52:06;8.43;;;4.87;;
19127;SDS011;9696;53.686;10.094;2023-11-18T05:54:35;10.67;;;4.60;;
19127;SDS011;9696;53.686;10.094;2023-11-18T05:57:04;8.53;;;4.37;;
19127;SDS011;9696;53.686;10.094;2023-11-18T05:59:35;9.87;;;4.70;;
19127;SDS011;9696;53.686;10.094;2023-11-18T06:02:05;8.73;;;4.80;;
19127;SDS011;9696;53.686;10.094;2023-11-18T06:04:35;6.60;;;3.77;;
19127;SDS011;9696;53.686;10.094;2023-11-18T06:07:07;6.87;;;4.27;;
19127;SDS011;9696;53.686;10.094;2023-11-18T06:09:36;7.67;;;4.50;;
19127;SDS011;9696;53.686;10.094;2023-11-18T06:12:06;8.97;;;4.83;;
19127;SDS011;9696;53.686;10.094;2023-11-18T06:14:38;6.73;;;4.00;;
19127;SDS011;9696;53.686;10.094;2023-11-18T06:17:08;7.43;;;4.57;;
19127;SDS011;9696;53.686;10.094;2023-11-18T06:19:40;12.43;;;4.63;;
19127;SDS011;9696;53.686;10.094;2023-11-18T06:22:19;14.20;;;5.13;;
19127;SDS011;9696;53.686;10.094;2023-11-18T06:24:52;9.17;;;4.80;;
19127;SDS011;9696;53.686;10.094;2023-11-18T06:27:22;7.67;;;5.07;;
19127;SDS011;9696;53.686;10.094;2023-11-18T06:29:53;8.27;;;5.47;;
19127;SDS011;9696;53.686;10.094;2023-11-18T06:32:23;8.77;;;5.00;;
19127;SDS011;9696;53.686;10.094;2023-11-18T06:34:54;12.63;;;5.37;;
19127;SDS011;9696;53.686;10.094;2023-11-18T06:37:24;10.33;;;5.43;;
19127;SDS011;9696;53.686;10.094;2023-11-18T06:39:55;8.77;;;4.47;;
19127;SDS011;9696;53.686;10.094;2023-11-18T06:42:24;10.47;;;4.67;;
19127;SDS011;9696;53.686;10.094;2023-11-18T06:44:56;7.97;;;4.57;;
19127;SDS011;9696;53.686;10.094;2023-11-18T06:47:25;8.87;;;4.50;;
19127;SDS011;9696;53.686;10.094;2023-11-18T06:49:59;8.60;;;4.63;;
19127;SDS011;9696;53.686;10.094;2023-11-18T06:52:28;7.07;;;4.47;;
19127;SDS011;9696;53.686;10.094;2023-11-18T06:54:59;11.63;;;4.03;;
19127;SDS011;9696;53.686;10.094;2023-11-18T06:57:31;9.87;;;4.07;;
19127;SDS011;9696;53.686;10.094;2023-11-18T07:00:01;8.53;;;5.00;;
19127;SDS011;9696;53.686;10.094;2023-11-18T07:02:35;8.57;;;4.23;;
19127;SDS011;9696;53.686;10.094;2023-11-18T07:05:04;7.53;;;4.90;;
19127;SDS011;9696;53.686;10.094;2023-11-18T07:07:35;9.80;;;5.03;;
19127;SDS011;9696;53.686;10.094;2023-11-18T07:10:13;10.53;;;4.97;;
19127;SDS011;9696;53.686;10.094;2023-11-18T07:12:51;9.07;;;5.37;;
19127;SDS011;9696;53.686;10.094;2023-11-18T07:15:28;10.10;;;5.73;;
19127;SDS011;9696;53.686;10.094;2023-11-18T07:18:11;9.63;;;5.80;;
19127;SDS011;9696;53.686;10.094;2023-11-18T07:20:46;9.50;;;5.70;;
19127;SDS011;9696;53.686;10.094;2023-11-18T07:23:24;22.83;;;9.43;;
19127;SDS011;9696;53.686;10.094;2023-11-18T07:26:01;18.17;;;9.83;;
19127;SDS011;9696;53.686;10.094;2023-11-18T07:28:37;10.43;;;6.40;;
19127;SDS011;9696;53.686;10.094;2023-11-18T07:31:16;10.80;;;4.90;;
19127;SDS011;9696;53.686;10.094;2023-11-18T07:33:52;12.33;;;6.30;;
19127;SDS011;9696;53.686;10.094;2023-11-18T07:36:28;17.80;;;8.20;;
19127;SDS011;9696;53.686;10.094;2023-11-18T07:39:03;10.63;;;6.53;;
19127;SDS011;9696;53.686;10.094;2023-11-18T07:41:44;9.10;;;5.10;;
19127;SDS011;9696;53.686;10.094;2023-11-18T07:44:19;8.20;;;5.00;;
19127;SDS011;9696;53.686;10.094;2023-11-18T07:46:53;11.00;;;5.47;;
19127;SDS011;9696;53.686;10.094;2023-11-18T07:49:23;11.07;;;5.50;;
19127;SDS011;9696;53.686;10.094;2023-11-18T07:51:53;11.73;;;6.27;;
19127;SDS011;9696;53.686;10.094;2023-11-18T07:54:23;9.23;;;5.13;;
19127;SDS011;9696;53.686;10.094;2023-11-18T07:56:52;9.60;;;4.90;;
19127;SDS011;9696;53.686;10.094;2023-11-18T07:59:22;11.10;;;5.67;;
19127;SDS011;9696;53.686;10.094;2023-11-18T08:01:55;10.20;;;6.13;;
19127;SDS011;9696;53.686;10.094;2023-11-18T08:04:25;11.90;;;6.20;;
19127;SDS011;9696;53.686;10.094;2023-11-18T08:06:59;10.33;;;5.43;;
19127;SDS011;9696;53.686;10.094;2023-11-18T08:09:51;10.43;;;5.87;;
19127;SDS011;9696;53.686;10.094;2023-11-18T08:12:32;10.40;;;5.33;;
19127;SDS011;9696;53.686;10.094;2023-11-18T08:15:06;9.97;;;5.43;;
19127;SDS011;9696;53.686;10.094;2023-11-18T08:17:42;12.13;;;6.20;;
19127;SDS011;9696;53.686;10.094;2023-11-18T08:20:19;14.27;;;6.47;;
19127;SDS011;9696;53.686;10.094;2023-11-18T08:22:57;12.67;;;6.13;;
19127;SDS011;9696;53.686;10.094;2023-11-18T08:25:34;11.93;;;6.43;;
19127;SDS011;9696;53.686;10.094;2023-11-18T08:28:09;11.43;;;5.97;;
19127;SDS011;9696;53.686;10.094;2023-11-18T08:30:48;10.20;;;6.13;;
19127;SDS011;9696;53.686;10.094;2023-11-18T08:33:25;11.83;;;6.10;;
19127;SDS011;9696;53.686;10.094;2023-11-18T08:35:59;11.37;;;6.43;;
19127;SDS011;9696;53.686;10.094;2023-11-18T08:38:38;12.37;;;6.03;;
19127;SDS011;9696;53.686;10.094;2023-11-18T08:41:15;20.60;;;6.43;;
19127;SDS011;9696;53.686;10.094;2023-11-18T08:43:55;16.97;;;6.60;;
19127;SDS011;9696;53.686;10.094;2023-11-18T08:46:49;14.53;;;6.20;;
19127;SDS011;9696;53.686;10.094;2023-11-18T08:49:28;12.23;;;6.63;;
19127;SDS011;9696;53.686;10.094;2023-11-18T08:52:04;16.03;;;7.83;;
19127;SDS011;9696;53.686;10.094;2023-11-18T08:54:41;20.93;;;8.13;;
19127;SDS011;9696;53.686;10.094;2023-11-18T08:57:28;19.13;;;8.43;;
19127;SDS011;9696;53.686;10.094;2023-11-18T09:00:18;15.03;;;8.00;;
19127;SDS011;9696;53.686;10.094;2023-11-18T09:03:23;14.63;;;7.00;;
19127;SDS011;9696;53.686;10.094;2023-11-18T09:05:57;12.90;;;6.20;;
19127;SDS011;9696;53.686;10.094;2023-11-18T09:08:31;9.67;;;5.90;;
19127;SDS011;9696;53.686;10.094;2023-11-18T09:11:03;13.47;;;6.50;;
19127;SDS011;9696;53.686;10.094;2023-11-18T09:13:34;10.03;;;5.30;;
19127;SDS011;9696;53.686;10.094;2023-11-18T09:16:04;7.87;;;4.47;;
19127;SDS011;9696;53.686;10.094;2023-11-18T09:18:36;6.00;;;3.70;;
19127;SDS011;9696;53.686;10.094;2023-11-18T09:21:11;7.10;;;3.97;;
19127;SDS011;9696;53.686;10.094;2023-11-18T09:23:43;7.07;;;3.90;;
19127;SDS011;9696;53.686;10.094;2023-11-18T09:26:15;6.23;;;4.07;;
19127;SDS011;9696;53.686;10.094;2023-11-18T09:28:48;6.73;;;3.87;;
19127;SDS011;9696;53.686;10.094;2023-11-18T09:31:30;5.57;;;3.87;;
19127;SDS011;9696;53.686;10.094;2023-11-18T09:34:03;6.03;;;3.93;;
19127;SDS011;9696;53.686;10.094;2023-11-18T09:36:34;10.60;;;4.00;;
19127;SDS011;9696;53.686;10.094;2023-11-18T09:39:04;7.87;;;3.93;;
19127;SDS011;9696;53.686;10.094;2023-11-18T09:41:39;4.77;;;3.00;;
19127;SDS011;9696;53.686;10.094;2023-11-18T09:44:11;5.70;;;3.10;;
19127;SDS011;9696;53.686;10.094;2023-11-18T09:46:44;5.67;;;2.80;;
19127;SDS011;9696;53.686;10.094;2023-11-18T09:49:27;4.60;;;2.80;;
19127;SDS011;9696;53.686;10.094;2023-11-18T09:52:03;4.93;;;2.50;;
19127;SDS011;9696;53.686;10.094;2023-11-18T09:54:34;3.30;;;2.10;;
19127;SDS011;9696;53.686;10.094;2023-11-18T09:57:10;4.10;;;2.43;;
19127;SDS011;9696;53.686;10.094;2023-11-18T09:59:52;5.17;;;2.40;;
19127;SDS011;9696;53.686;10.094;2023-11-18T10:02:38;4.03;;;2.50;;
19127;SDS011;9696;53.686;10.094;2023-11-18T10:05:09;3.47;;;1.93;;
19127;SDS011;9696;53.686;10.094;2023-11-18T10:07:41;3.17;;;2.10;;
19127;SDS011;9696;53.686;10.094;2023-11-18T10:10:14;3.50;;;1.97;;
19127;SDS011;9696;53.686;10.094;2023-11-18T10:12:50;2.53;;;1.97;;
19127;SDS011;9696;53.686;10.094;2023-11-18T10:15:25;11.03;;;2.10;;
19127;SDS011;9696;53.686;10.094;2023-11-18T10:18:02;4.47;;;1.97;;
19127;SDS011;9696;53.686;10.094;2023-11-18T10:20:51;3.87;;;1.97;;
19127;SDS011;9696;53.686;10.094;2023-11-18T10:23:23;3.83;;;1.90;;
19127;SDS011;9696;53.686;10.094;2023-11-18T10:25:55;2.43;;;1.47;;
19127;SDS011;9696;53.686;10.094;2023-11-18T10:28:31;2.17;;;1.37;;
19127;SDS011;9696;53.686;10.094;2023-11-18T10:31:02;2.20;;;1.27;;
19127;SDS011;9696;53.686;10.094;2023-11-18T10:33:33;2.83;;;1.60;;
19127;SDS011;9696;53.686;10.094;2023-11-18T10:36:05;2.33;;;1.53;;
19127;SDS011;9696;53.686;10.094;2023-11-18T10:38:51;1.80;;;1.30;;
19127;SDS011;9696;53.686;10.094;2023-11-18T10:41:23;2.03;;;1.33;;
19127;SDS011;9696;53.686;10.094;2023-11-18T10:44:04;1.93;;;1.27;;
19127;SDS011;9696;53.686;10.094;2023-11-18T10:46:35;1.40;;;1.20;;
19127;SDS011;9696;53.686;10.094;2023-11-18T10:49:05;3.37;;;1.50;;
19127;SDS011;9696;53.686;10.094;2023-11-18T10:51:39;1.37;;;1.03;;
19127;SDS011;9696;53.686;10.094;2023-11-18T10:54:16;2.27;;;1.37;;
19127;SDS011;9696;53.686;10.094;2023-11-18T10:57:00;2.00;;;1.10;;
19127;SDS011;9696;53.686;10.094;2023-11-18T10:59:35;2.17;;;1.30;;
19127;SDS011;9696;53.686;10.094;2023-11-18T11:02:29;1.67;;;1.10;;
19127;SDS011;9696;53.686;10.094;2023-11-18T11:05:03;1.30;;;1.20;;
19127;SDS011;9696;53.686;10.094;2023-11-18T11:07:33;1.53;;;1.10;;
19127;SDS011;9696;53.686;10.094;2023-11-18T11:10:06;4.17;;;1.30;;
19127;SDS011;9696;53.686;10.094;2023-11-18T11:12:39;1.53;;;1.20;;
19127;SDS011;9696;53.686;10.094;2023-11-18T11:15:20;2.07;;;1.10;;
19127;SDS011;9696;53.686;10.094;2023-11-18T11:17:56;2.43;;;1.33;;
19127;SDS011;9696;53.686;10.094;2023-11-18T11:20:37;1.83;;;1.30;;
19127;SDS011;9696;53.686;10.094;2023-11-18T11:23:13;1.83;;;1.37;;
19127;SDS011;9696;53.686;10.094;2023-11-18T11:25:54;2.40;;;1.37;;
19127;SDS011;9696;53.686;10.094;2023-11-18T11:28:34;1.47;;;1.20;;
19127;SDS011;9696;53.686;10.094;2023-11-18T11:31:12;2.33;;;1.27;;
19127;SDS011;9696;53.686;10.094;2023-11-18T11:33:53;1.30;;;0.90;;
19127;SDS011;9696;53.686;10.094;2023-11-18T11:36:29;1.27;;;1.13;;
19127;SDS011;9696;53.686;10.094;2023-11-18T11:39:04;5.37;;;1.37;;
19127;SDS011;9696;53.686;10.094;2023-11-18T11:41:39;2.70;;;1.03;;
19127;SDS011;9696;53.686;10.094;2023-11-18T11:44:12;1.47;;;1.10;;
19127;SDS011;9696;53.686;10.094;2023-11-18T11:46:42;1.33;;;1.10;;
19127;SDS011;9696;53.686;10.094;2023-11-18T11:49:13;1.67;;;1.10;;
19127;SDS011;9696;53.686;10.094;2023-11-18T11:51:48;1.67;;;1.30;;
19127;SDS011;9696;53.686;10.094;2023-11-18T11:54:23;2.40;;;1.60;;
19127;SDS011;9696;53.686;10.094;2023-11-18T11:56:57;1.77;;;1.33;;
19127;SDS011;9696;53.686;10.094;2023-11-18T11:59:34;2.47;;;1.50;;
19127;SDS011;9696;53.686;10.094;2023-11-18T12:02:23;1.83;;;1.20;;
19127;SDS011;9696;53.686;10.094;2023-11-18T12:04:56;1.80;;;1.40;;
19127;SDS011;9696;53.686;10.094;2023-11-18T12:07:26;1.70;;;1.20;;
19127;SDS011;9696;53.686;10.094;2023-11-18T12:10:07;1.70;;;1.30;;
19127;SDS011;9696;53.686;10.094;2023-11-18T12:12:43;2.30;;;1.20;;
19127;SDS011;9696;53.686;10.094;2023-11-18T12:15:15;2.60;;;0.97;;
19127;SDS011;9696;53.686;10.094;2023-11-18T12:18:10;2.40;;;1.30;;
19127;SDS011;9696;53.686;10.094;2023-11-18T12:20:45;2.30;;;1.00;;
19127;SDS011;9696;53.686;10.094;2023-11-18T12:23:23;1.50;;;0.93;;
19127;SDS011;9696;53.686;10.094;2023-11-18T12:25:54;1.50;;;0.83;;
19127;SDS011;9696;53.686;10.094;2023-11-18T12:28:26;1.97;;;1.20;;
19127;SDS011;9696;53.686;10.094;2023-11-18T12:30:58;2.00;;;1.17;;
19127;SDS011;9696;53.686;10.094;2023-11-18T12:42:58;1.10;;;0.90;;
19127;SDS011;9696;53.686;10.094;2023-11-18T12:48:35;2.47;;;1.60;;
19127;SDS011;9696;53.686;10.094;2023-11-18T12:51:11;2.93;;;1.50;;
19127;SDS011;9696;53.686;10.094;2023-11-18T12:53:49;2.70;;;1.60;;
19127;SDS011;9696;53.686;10.094;2023-11-18T12:56:20;2.97;;;1.77;;
19127;SDS011;9696;53.686;10.094;2023-11-18T12:58:55;3.73;;;1.70;;
19127;SDS011;9696;53.686;10.094;2023-11-18T13:01:25;3.63;;;2.13;;
19127;SDS011;9696;53.686;10.094;2023-11-18T13:03:57;2.93;;;1.80;;
19127;SDS011;9696;53.686;10.094;2023-11-18T13:06:30;3.33;;;2.03;;
19127;SDS011;9696;53.686;10.094;2023-11-18T13:09:00;3.37;;;2.27;;
19127;SDS011;9696;53.686;10.094;2023-11-18T13:11:37;3.03;;;1.87;;
19127;SDS011;9696;53.686;10.094;2023-11-18T13:14:09;2.13;;;1.70;;
19127;SDS011;9696;53.686;10.094;2023-11-18T13:16:39;2.47;;;1.67;;
19127;SDS011;9696;53.686;10.094;2023-11-18T13:19:13;2.73;;;1.97;;
19127;SDS011;9696;53.686;10.094;2023-11-18T13:21:57;2.87;;;1.80;;
19127;SDS011;9696;53.686;10.094;2023-11-18T13:24:27;3.10;;;1.97;;
19127;SDS011;9696;53.686;10.094;2023-11-18T13:26:57;2.20;;;1.60;;
19127;SDS011;9696;53.686;10.094;2023-11-18T13:29:30;2.77;;;1.70;;
19127;SDS011;9696;53.686;10.094;2023-11-18T13:32:01;2.33;;;1.63;;
19127;SDS011;9696;53.686;10.094;2023-11-18T13:34:34;3.70;;;1.50;;
19127;SDS011;9696;53.686;10.094;2023-11-18T13:37:05;2.37;;;1.53;;
19127;SDS011;9696;53.686;10.094;2023-11-18T13:39:38;2.60;;;1.60;;
19127;SDS011;9696;53.686;10.094;2023-11-18T13:42:20;4.17;;;1.93;;
19127;SDS011;9696;53.686;10.094;2023-11-18T13:44:51;2.43;;;1.70;;
19127;SDS011;9696;53.686;10.094;2023-11-18T13:47:20;2.77;;;1.87;;
19127;SDS011;9696;53.686;10.094;2023-11-18T13:49:55;2.93;;;1.73;;
19127;SDS011;9696;53.686;10.094;2023-11-18T13:52:27;3.47;;;2.10;;
19127;SDS011;9696;53.686;10.094;2023-11-18T13:54:58;4.40;;;1.90;;
19127;SDS011;9696;53.686;10.094;2023-11-18T13:57:28;3.23;;;1.93;;
19127;SDS011;9696;53.686;10.094;2023-11-18T13:59:58;3.50;;;2.07;;
19127;SDS011;9696;53.686;10.094;2023-11-18T14:02:31;3.70;;;2.30;;
19127;SDS011;9696;53.686;10.094;2023-11-18T14:05:05;2.60;;;2.00;;
19127;SDS011;9696;53.686;10.094;2023-11-18T14:07:43;2.57;;;1.80;;
19127;SDS011;9696;53.686;10.094;2023-11-18T14:10:15;4.13;;;1.73;;
19127;SDS011;9696;53.686;10.094;2023-11-18T14:13:01;2.63;;;1.57;;
19127;SDS011;9696;53.686;10.094;2023-11-18T14:15:33;2.83;;;1.93;;
19127;SDS011;9696;53.686;10.094;2023-11-18T14:18:03;3.00;;;1.97;;
19127;SDS011;9696;53.686;10.094;2023-11-18T14:20:36;3.27;;;2.13;;
19127;SDS011;9696;53.686;10.094;2023-11-18T14:23:06;3.07;;;2.00;;
19127;SDS011;9696;53.686;10.094;2023-11-18T14:25:35;2.23;;;1.63;;
19127;SDS011;9696;53.686;10.094;2023-11-18T14:28:05;3.10;;;1.90;;
19127;SDS011;9696;53.686;10.094;2023-11-18T14:30:35;3.00;;;1.90;;
19127;SDS011;9696;53.686;10.094;2023-11-18T14:33:05;2.30;;;1.47;;
19127;SDS011;9696;53.686;10.094;2023-11-18T14:35:35;2.13;;;1.60;;
19127;SDS011;9696;53.686;10.094;2023-11-18T14:38:07;5.83;;;2.00;;
19127;SDS011;9696;53.686;10.094;2023-11-18T14:40:38;3.27;;;1.90;;
19127;SDS011;9696;53.686;10.094;2023-11-18T14:43:08;4.00;;;2.20;;
19127;SDS011;9696;53.686;10.094;2023-11-18T14:45:38;2.80;;;2.00;;
19127;SDS011;9696;53.686;10.094;2023-11-18T14:48:07;2.50;;;1.60;;
19127;SDS011;9696;53.686;10.094;2023-11-18T14:50:38;2.00;;;1.43;;
19127;SDS011;9696;53.686;10.094;2023-11-18T14:53:07;2.13;;;1.63;;
19127;SDS011;9696;53.686;10.094;2023-11-18T14:55:37;4.27;;;1.63;;
19127;SDS011;9696;53.686;10.094;2023-11-18T14:58:06;4.00;;;1.80;;
19127;SDS011;9696;53.686;10.094;2023-11-18T15:00:39;2.87;;;1.90;;
19127;SDS011;9696;53.686;10.094;2023-11-18T15:03:09;2.60;;;1.60;;
19127;SDS011;9696;53.686;10.094;2023-11-18T15:05:41;2.23;;;1.37;;
19127;SDS011;9696;53.686;10.094;2023-11-18T15:08:11;3.03;;;1.57;;
19127;SDS011;9696;53.686;10.094;2023-11-18T15:10:43;2.53;;;1.93;;
19127;SDS011;9696;53.686;10.094;2023-11-18T15:13:14;3.00;;;2.00;;
19127;SDS011;9696;53.686;10.094;2023-11-18T15:15:45;2.70;;;2.00;;
19127;SDS011;9696;53.686;10.094;2023-11-18T15:18:15;2.43;;;1.67;;
19127;SDS011;9696;53.686;10.094;2023-11-18T15:20:48;6.07;;;1.90;;
19127;SDS011;9696;53.686;10.094;2023-11-18T15:23:19;6.00;;;2.13;;
19127;SDS011;9696;53.686;10.094;2023-11-18T15:25:49;2.63;;;1.77;;
19127;SDS011;9696;53.686;10.094;2023-11-18T15:28:19;9.60;;;1.73;;
19127;SDS011;9696;53.686;10.094;2023-11-18T15:30:48;5.00;;;2.43;;
19127;SDS011;9696;53.686;10.094;2023-11-18T15:33:18;3.40;;;1.90;;
19127;SDS011;9696;53.686;10.094;2023-11-18T15:35:49;3.53;;;2.30;;